Caliente, Nevada Weather observations

Data are for observation ending at time listed.
 Day   Time    Ave.   Ave.  Ave.  Vector   Max.   Stn.    Total    Solar   Ave.  
  of    of     Air    Rel.  Wind   Wind    Wind   Baro.  Precip.   Rad.    Soil  
Year   Day     Temp.  Hum.  Speed  Dir.    Gust   Pres.                    Temp. 
2014   (PST)    F      %     mph   deg.    mph     mb.     in.     W/m2     F   
------------------------------------------------------------------------------
 303    0:00   40.9    42    0.8    87      1.8   873.4    0.00       0    54.8
 303    0:10   40.0    43    1.1   100      2.2   873.4    0.00       0    54.6
 303    0:20   39.9    42    0.7   108      3.3   873.4    0.00       0    54.5
 303    0:30   39.6    43    1.0   105      1.8   873.5    0.00       0    54.4
 303    0:40   38.9    44    1.2    94      2.2   873.5    0.00       0    54.3
 303    0:50   38.7    44    0.8   104      2.2   873.4    0.00       0    54.1
 303    1:00   38.0    45    1.6   110      2.3   873.4    0.00       0    54.0
 303    1:10   37.8    45    1.2   114      2.3   873.4    0.00       0    53.9
 303    1:20   37.6    45    1.4   113      2.0   873.4    0.00       0    53.8
 303    1:30   37.4    46    1.2   104      1.9   873.4    0.00       0    53.7
 303    1:40   37.2    46    0.8   128      1.5   873.5    0.00       0    53.5
 303    1:50   36.8    47    1.8   103      2.9   873.5    0.00       0    53.4
 303    2:00   36.9    46    1.4   116      2.2   873.5    0.00       0    53.3
 303    2:10   36.5    47    0.6    83      2.3   873.5    0.00       0    53.2
 303    2:20   36.2    48    1.0   100      2.3   873.5    0.00       0    53.1
 303    2:30   35.8    48    1.2   109      2.0   873.4    0.00       0    53.0
 303    2:40   35.5    49    1.6   111      2.7   873.4    0.00       0    52.9
 303    2:50   35.4    49    1.2   110      1.8   873.3    0.00       0    52.7
 303    3:00   35.2    49    1.6   103      2.6   873.3    0.00       0    52.6
 303    3:10   35.2    48    1.4   107      3.0   873.2    0.00       0    52.5
 303    3:20   35.4    47    1.5    75      2.3   873.2    0.00       0    52.3
 303    3:30   35.4    47    1.1    73      2.9   873.2    0.00       0    52.2
 303    3:40   34.8    48    1.7   121      2.6   873.1    0.00       0    52.1
 303    3:50   34.7    50    0.2   168      1.2   873.1    0.00       0    52.0
 303    4:00   34.4    50    0.5   178      1.3   873.2    0.00       0    51.9
 303    4:10   34.1    50    0.2   118      1.2   873.2    0.00       0    51.8
 303    4:20   33.8    51    0.6   115      1.5   873.3    0.00       0    51.6
 303    4:30   33.4    52    0.7   105      1.5   873.4    0.00       0    51.5
 303    4:40   33.3    52    0.7    95      1.5   873.4    0.00       0    51.4
 303    4:50   32.7    53    1.0   107      1.8   873.4    0.00       0    51.3
 303    5:00   32.5    53    1.2   125      2.0   873.4    0.00       0    51.2
 303    5:10   32.6    52    1.2    61      3.9   873.4    0.00       0    51.1
 303    5:20   32.5    53    0.9    96      2.0   873.4    0.00       0    51.0
 303    5:30   32.2    52    1.1   104      2.0   873.5    0.00       0    50.9
 303    5:40   32.0    54    0.7   105      1.4   873.6    0.00       0    50.7
 303    5:50   32.0    54    0.9    96      2.1   873.7    0.00       0    50.6
 303    6:00   32.0    53    0.3    68      2.0   873.7    0.00       0    50.5
 303    6:10   31.8    54    0.1   133      0.8   873.8    0.00       5    50.4
 303    6:20   31.7    54    0.5    52      1.8   873.8    0.00       6    50.3
 303    6:30   31.5    54    0.9   102      1.7   873.9    0.00      11    50.2
 303    6:40   31.7    53    0.7    93      2.3   873.9    0.00      12    50.1
 303    6:50   31.9    52    1.3   120      2.4   874.0    0.00      13    50.0
 303    7:00   32.1    53    1.4   119      2.4   874.1    0.00      29    49.9
 303    7:10   34.4    49    1.3   125      2.3   874.2    0.00      78    49.8
 303    7:20   36.6    45    1.5   128      2.9   874.2    0.00     160    49.6
 303    7:30   37.9    44    0.5   182      1.5   874.2    0.00     185    49.5
 303    7:40   38.6    42    0.5   227      1.3   874.3    0.00     211    49.5
 303    7:50   38.7    42    0.9   225      1.7   874.3    0.00     237    49.5
 303    8:00   41.2    40    0.5   226      1.5   874.3    0.00     263    49.4
 303    8:10   42.6    38    0.8   205      2.1   874.2    0.00     288    49.4
 303    8:20   44.9    35    0.7   234      2.3   874.1    0.00     311    49.4
 303    8:30   46.7    33    0.8   204      2.3   874.0    0.00     334    49.4
 303    8:40   47.7    31    1.5   105      2.7   873.9    0.00     357    49.5
 303    8:50   47.8    31    1.9   107      4.2   873.7    0.00     378    49.5
 303    9:00   48.9    31    1.7   104      3.8   873.6    0.00     398    49.7
 303    9:10   50.6    29    2.1    93      5.6   873.5    0.00     419    49.9
 303    9:20   51.7    28    3.6    20      6.9   873.3    0.00     437    50.3
 303    9:30   52.7    27    4.3     6      7.9   873.1    0.00     454    50.6
 303    9:40   53.5    26    4.1    23      7.8   873.0    0.00     472    51.0
 303    9:50   54.7    26    4.1    13      7.6   872.8    0.00     485    51.3
 303   10:00   55.8    25    2.8    27      5.6   872.7    0.00     485    51.5
 303   10:10   57.4    24    2.0    21      5.2   872.6    0.00     485    51.7
 303   10:20   58.8    23    2.4    42      5.4   872.5    0.00     495    51.7
 303   10:30   59.6    22    1.9     3      4.6   872.4    0.00     479    51.8
 303   10:40   60.7    21    1.3    48      3.5   872.2    0.00     552    52.0
 303   10:50   62.1    21    0.7    72      2.3   872.0    0.00     553    52.0
 303   11:00   63.3    20    1.1    92      2.3   871.9    0.00     488    52.2
 303   11:10   64.7    18    0.8    31      2.9   871.6    0.00     576    52.3
 303   11:20   66.3    18    0.9   112      2.6   871.4    0.00     547    52.5
 303   11:30   66.3    18    1.5   193      4.7   871.2    0.00     528    52.7
 303   11:40   67.2    18    1.8    95      4.1   870.9    0.00     499    52.8
 303   11:50   68.3    17    1.3    36      3.1   870.7    0.00     449    53.0
 303   12:00   69.0    16    1.1   117      2.6   870.4    0.00     485    53.2
 303   12:10   69.8    16    0.9   241      3.1   870.1    0.00     530    53.5
 303   12:20   70.9    16    0.9   321      3.0   869.9    0.00     564    53.8
 303   12:30   71.5    15    1.8    91      4.0   869.8    0.00     311    54.0
 303   12:40   71.6    14    2.1   280      5.0   869.6    0.00     215    54.2
 303   12:50   71.5    16    1.0   145      2.0   869.4    0.00     279    54.5
 303   13:00   72.4    16    0.9   132      2.4   869.3    0.00     312    54.7
 303   13:10   73.1    15    1.4   165      5.1   869.0    0.00     523    55.0
 303   13:20   74.4    14    3.2   270      6.2   868.8    0.00     483    55.3
 303   13:30   74.4    14    4.6   256      8.2   868.6    0.00     142    55.5
 303   13:40   74.6    14    2.3   260      6.4   868.4    0.00      35    55.8
 303   13:50   75.1    15    4.8   254      9.2   868.3    0.00      32    56.0
 303   14:00   75.6    16    9.0   250     14.9   868.2    0.00      32    56.2
 303   14:10   75.6    16    4.1   227     10.4   868.2    0.00      29    56.4
 303   14:20   76.2    15    3.4   252      9.6   868.2    0.00      32    56.7
 303   14:30   75.8    16    7.2   249     12.1   868.1    0.00      94    56.9
 303   14:40   75.8    16    5.1   248     10.4   868.1    0.00     271    57.3
 303   14:50   75.9    16    4.8   239     11.0   868.1    0.00     280    57.7
 303   15:00   75.9    15    3.0   153      7.6   868.1    0.00     270    58.2
 303   15:10   76.4    15    1.1   203      4.1   868.0    0.00     214    58.7
 303   15:20   76.5    15    2.5   210      5.9   868.0    0.00     203    59.3
 303   15:30   75.8    15    1.4   161      4.7   868.1    0.00     187    59.7
 303   15:40   76.0    14    2.2   183      7.0   868.1    0.00     168    60.1
 303   15:50   75.7    14    3.9   124      9.6   868.0    0.00     145    60.5
 303   16:00   75.1    14    3.4   142      9.3   867.9    0.00      98    60.9
 303   16:10   74.6    15    2.4   138      8.0   867.9    0.00      67    61.1
 303   16:20   73.8    16    1.2   130      3.4   867.9    0.00      16    61.4
 303   16:30   71.7    17    1.1   166      4.5   867.9    0.00      10    61.5
 303   16:40   71.0    18    2.8   138      4.7   867.9    0.00       8    61.6
 303   16:50   70.8    17    2.3   144      5.1   868.0    0.00       3    61.5
 303   17:00   69.4    19    0.5   159      2.2   868.0    0.00       2    61.5
 303   17:10   67.4    22    1.0   129      3.6   868.0    0.00       0    61.4
 303   17:20   65.6    23    0.8   336      2.1   868.0    0.00       0    61.3
 303   17:30   64.4    24    0.6   198      2.0   868.1    0.00       1    61.2
 303   17:40   63.6    24    1.4   292      3.4   868.1    0.00       1    61.1
 303   17:50   63.3    24    1.7   339      3.2   868.1    0.00       1    60.9
 303   18:00   63.1    24    1.3   238      2.9   868.1    0.00       1    60.8
 303   18:10   62.7    25    1.0   286      2.4   868.2    0.00       1    60.7
 303   18:20   61.8    26    1.0   278      2.6   868.3    0.00       1    60.6
 303   18:30   60.6    28    0.7   146      2.0   868.3    0.00       1    60.5
 303   18:40   60.1    28    1.0    58      2.9   868.3    0.00       0    60.4
 303   18:50   60.4    27    1.3    86      3.8   868.4    0.00       1    60.3
 303   19:00   59.0    29    0.1   160      1.4   868.5    0.00       0    60.2
 303   19:10   58.1    30    1.1    54      2.9   868.4    0.00       0    60.0
 303   19:20   57.8    30    0.3   157      1.6   868.4    0.00       0    59.9
 303   19:30   57.5    30    0.5   160      1.8   868.5    0.00       0    59.8
 303   19:40   56.2    33    0.1   140      0.8   868.5    0.00       0    59.7
 303   19:50   55.4    33    0.7   111      1.7   868.4    0.00       0    59.6
 303   20:00   55.0    33    0.8    83      1.8   868.5    0.00       0    59.5
 303   20:10   54.8    33    0.9   139      2.3   868.6    0.00       0    59.4
 303   20:20   55.1    32    0.7   231      1.8   868.8    0.00       0    59.3
 303   20:30   54.2    34    0.9   123      1.9   868.8    0.00       0    59.2
 303   20:40   53.6    34    0.4   125      1.3   868.8    0.00       0    59.1
 303   20:50   53.5    33    1.6    36      3.5   868.7    0.00       0    59.0
 303   21:00   54.2    33    1.6    45      4.3   868.7    0.00       0    58.9
 303   21:10   54.3    32    2.1    41      4.8   868.7    0.00       0    58.9
 303   21:20   53.7    33    1.6    20      5.0   868.7    0.00       0    58.8
 303   21:30   53.7    32    0.9    23      3.8   868.7    0.00       0    58.7
 303   21:40   53.7    33    0.5   192      1.7   868.6    0.00       0    58.6
 303   21:50   53.3    34    0.9   253      2.0   868.6    0.00       0    58.6
 303   22:00   52.7    34    0.8   169      1.7   868.6    0.00       0    58.5
 303   22:10   52.0    36    0.9   158      1.9   868.6    0.00       0    58.4
 303   22:20   51.7    37    0.7    23      2.3   868.6    0.00       0    58.4
 303   22:30   51.9    35    1.4    39      3.1   868.4    0.00       0    58.3
 303   22:40   51.5    35    1.4    27      3.7   868.3    0.00       0    58.2
 303   22:50   50.7    37    1.2    59      3.2   868.3    0.00       0    58.2
 303   23:00   50.6    36    1.0   113      3.7   868.3    0.00       0    58.1
 303   23:10   50.5    36    1.3    74      4.6   868.3    0.00       0    58.0
 303   23:20   50.5    36    1.2   359      2.9   868.2    0.00       0    57.9
 303   23:30   50.0    38    0.3   248      1.7   868.3    0.00       0    57.8
 303   23:40   49.4    40    0.7   117      2.6   868.3    0.00       0    57.8
 303   23:50   49.0    40    1.5    49      3.1   868.1    0.00       0    57.7

Return to Caliente, Nevada graphs page.


Western Regional Climate Center,wrcc@dri.edu